Terminal Aerodrome Forecast
Issued by NWS Cleveland, OH

Home | Current Version | Previous Version | Graphics & Text | Print | Product List | Glossary On
Versions: 1 2 3 4 5 6 7 8 9 10 11 12 13 14 15 16 17 18 19 20
000
FTUS41 KCLE 240847 AAC
TAFTOL
TAF AMD
KTOL 240847Z 2409/2506 07010KT 6SM BR SCT006 OVC030
      TEMPO 2409/2412 3SM -TSRA BR BKN006CB
     FM241200 12007KT 5SM BR VCSH BKN018 OVC035
     FM241500 17014G23KT P6SM BKN045
     FM250300 24014KT P6SM -SHRA VCTS OVC020CB=

USA.gov is the U.S. government's official web portal to all federal, state and local government web resources and services.